Time;durP1;ratioP1;P1;durP2;ratioP2;P2;SDS_P1;SDS_P2;PMS_P1;PMS_P2;Temp;Humidity;BMP_temperature;BMP_pressure;BME280_temperature;BME280_humidity;BME280_pressure;Samples;Min_cycle;Max_cycle;Signal;HPM_P1;HPM_P2
2022/10/18 00:00:25;;;;;;;7.50;5.60;;;17.60;99.90;;;;;;5099357;28;20184;-65
2022/10/18 00:02:51;;;;;;;9.57;5.38;;;17.50;99.90;;;;;;5106446;28;20559;-65
2022/10/18 00:05:17;;;;;;;7.20;5.50;;;17.50;99.90;;;;;;5108214;28;20195;-64
2022/10/18 00:07:42;;;;;;;9.68;5.78;;;17.40;99.90;;;;;;5094827;28;20181;-64
2022/10/18 00:10:09;;;;;;;7.68;5.57;;;17.40;99.90;;;;;;5098444;28;20291;-65
2022/10/18 00:12:35;;;;;;;9.15;6.43;;;17.30;99.90;;;;;;5095585;28;20212;-65
2022/10/18 00:15:02;;;;;;;10.38;5.30;;;17.30;99.90;;;;;;5103505;28;20234;-65
2022/10/18 00:17:28;;;;;;;8.65;5.65;;;17.20;99.90;;;;;;5092757;28;20611;-65
2022/10/18 00:19:54;;;;;;;7.03;4.85;;;17.20;99.90;;;;;;5110529;28;20168;-65
2022/10/18 00:22:19;;;;;;;7.88;4.72;;;17.20;99.90;;;;;;5102298;28;20195;-65
2022/10/18 00:24:45;;;;;;;8.27;5.07;;;17.20;99.90;;;;;;5104147;28;20180;-65
2022/10/18 00:27:11;;;;;;;8.02;5.78;;;17.20;99.90;;;;;;5103351;28;20184;-64
2022/10/18 00:29:37;;;;;;;8.73;5.25;;;17.20;99.90;;;;;;5105893;27;20666;-64
2022/10/18 00:32:02;;;;;;;7.43;5.45;;;17.20;99.90;;;;;;5108671;28;20548;-65
2022/10/18 00:34:28;;;;;;;7.97;5.35;;;17.20;99.90;;;;;;5105337;28;20228;-64
2022/10/18 00:36:54;;;;;;;8.20;5.28;;;17.20;99.90;;;;;;5098250;28;20187;-64
2022/10/18 00:39:21;;;;;;;9.05;5.00;;;17.20;99.90;;;;;;5104998;28;20270;-64
2022/10/18 00:41:47;;;;;;;7.15;5.40;;;17.30;99.90;;;;;;5101561;28;20184;-65
2022/10/18 00:44:16;;;;;;;10.95;6.10;;;17.30;99.90;;;;;;5094175;28;20216;-65
2022/10/18 00:46:44;;;;;;;6.50;4.97;;;17.30;99.90;;;;;;5093381;28;20172;-65
2022/10/18 00:49:37;;;;;;;8.73;5.97;;;17.30;99.90;;;;;;5099313;28;20272;-65
2022/10/18 00:52:11;;;;;;;8.02;6.38;;;17.30;99.90;;;;;;5091690;28;20191;-65
2022/10/18 00:54:41;;;;;;;8.10;6.40;;;17.40;99.90;;;;;;5100580;28;20243;-65
2022/10/18 00:57:08;;;;;;;11.32;8.43;;;17.50;99.90;;;;;;5098326;28;20560;-65
2022/10/18 00:59:34;;;;;;;10.73;7.25;;;17.70;99.90;;;;;;5092837;28;20195;-64
2022/10/18 01:02:00;;;;;;;11.65;7.63;;;17.70;99.90;;;;;;5095205;28;20633;-65
2022/10/18 01:04:26;;;;;;;8.45;7.03;;;17.60;99.90;;;;;;5102912;28;20276;-65
2022/10/18 01:07:03;;;;;;;10.32;7.40;;;17.50;99.90;;;;;;5103254;28;20334;-65
2022/10/18 01:09:36;;;;;;;10.73;6.28;;;17.50;99.90;;;;;;5096618;28;20191;-65
2022/10/18 01:12:31;;;;;;;7.25;5.55;;;17.50;99.90;;;;;;5098680;28;20279;-65
2022/10/18 01:15:14;;;;;;;9.55;6.68;;;17.40;99.90;;;;;;5104080;28;20646;-65
2022/10/18 01:18:04;;;;;;;10.68;6.25;;;17.30;99.90;;;;;;5097234;28;20188;-65
2022/10/18 01:20:53;;;;;;;7.38;6.07;;;17.30;99.90;;;;;;5096487;28;20680;-64
2022/10/18 01:23:39;;;;;;;6.50;5.80;;;17.30;99.90;;;;;;5096723;28;20188;-65
2022/10/18 01:26:49;;;;;;;7.88;6.35;;;17.30;99.90;;;;;;5095831;28;20211;-65
2022/10/18 01:29:42;;;;;;;6.85;5.78;;;17.30;99.90;;;;;;5096507;27;20658;-65
2022/10/18 01:32:27;;;;;;;7.45;5.53;;;17.30;99.90;;;;;;5118670;27;20191;-65
2022/10/18 01:35:00;;;;;;;7.40;5.38;;;17.30;99.90;;;;;;5100573;28;20230;-65
2022/10/18 01:37:27;;;;;;;8.13;5.95;;;17.30;99.90;;;;;;5097292;28;20191;-64
2022/10/18 01:39:56;;;;;;;7.75;5.72;;;17.30;99.90;;;;;;5095843;28;20263;-65
2022/10/18 01:42:22;;;;;;;10.55;6.43;;;17.20;99.90;;;;;;5096215;28;20181;-65
2022/10/18 01:44:50;;;;;;;7.45;5.85;;;17.20;99.90;;;;;;5095981;28;20585;-64
2022/10/18 01:47:18;;;;;;;8.05;6.00;;;17.20;99.90;;;;;;5095670;28;20177;-65
2022/10/18 01:49:43;;;;;;;7.13;6.20;;;17.20;99.90;;;;;;5095859;28;20261;-65
2022/10/18 01:52:13;;;;;;;8.48;5.88;;;17.20;99.90;;;;;;5109316;28;20219;-65
2022/10/18 01:54:43;;;;;;;7.47;6.15;;;17.20;99.90;;;;;;5099821;28;20197;-65
2022/10/18 01:57:27;;;;;;;9.30;6.05;;;17.30;99.90;;;;;;5097423;28;20192;-65
2022/10/18 01:59:58;;;;;;;6.85;5.85;;;17.30;99.90;;;;;;5099413;28;20235;-65
2022/10/18 02:02:48;;;;;;;9.07;6.55;;;17.30;99.90;;;;;;5106353;28;20177;-65
2022/10/18 02:05:47;;;;;;;12.85;9.02;;;17.30;99.90;;;;;;5096561;28;20180;-65
2022/10/18 02:08:24;;;;;;;10.77;8.00;;;17.30;99.90;;;;;;5103020;28;20633;-65
2022/10/18 02:10:59;;;;;;;7.15;6.45;;;17.30;99.90;;;;;;5110312;28;20245;-65
2022/10/18 02:13:28;;;;;;;7.85;6.13;;;17.30;99.90;;;;;;5103064;28;20695;-65
2022/10/18 02:15:58;;;;;;;9.27;7.38;;;17.30;99.90;;;;;;5096775;28;20194;-65
2022/10/18 02:18:33;;;;;;;13.05;8.15;;;17.30;99.90;;;;;;5104301;28;20566;-65
2022/10/18 02:21:02;;;;;;;10.73;6.32;;;17.30;99.90;;;;;;5097866;28;20387;-65
2022/10/18 02:23:29;;;;;;;7.05;5.80;;;17.30;99.90;;;;;;5095118;28;20194;-65
2022/10/18 02:25:55;;;;;;;10.05;7.97;;;17.30;99.90;;;;;;5101085;28;20181;-65
2022/10/18 02:28:21;;;;;;;9.20;7.72;;;17.30;99.90;;;;;;5095314;28;20192;-65
2022/10/18 02:30:57;;;;;;;11.23;7.63;;;17.30;99.90;;;;;;5111470;27;20210;-64
2022/10/18 02:33:51;;;;;;;10.95;7.50;;;17.30;99.90;;;;;;5114095;28;20207;-65
2022/10/18 02:36:26;;;;;;;10.02;6.90;;;17.30;99.90;;;;;;5101324;28;20187;-65
2022/10/18 02:38:57;;;;;;;8.75;6.78;;;17.20;99.90;;;;;;5098926;28;20192;-65
2022/10/18 02:41:26;;;;;;;12.32;7.28;;;17.20;99.90;;;;;;5094661;28;20187;-65
2022/10/18 02:43:52;;;;;;;8.60;6.00;;;17.20;99.90;;;;;;5095532;28;20191;-65
2022/10/18 02:46:19;;;;;;;10.55;7.13;;;17.20;99.90;;;;;;5096153;28;20275;-64
2022/10/18 02:48:44;;;;;;;8.65;6.65;;;17.20;99.90;;;;;;5093596;28;20184;-65
2022/10/18 02:51:10;;;;;;;11.05;8.05;;;17.20;99.90;;;;;;5095079;28;20213;-64
2022/10/18 02:53:36;;;;;;;10.23;7.32;;;17.20;99.90;;;;;;5110089;27;20244;-65
2022/10/18 02:56:02;;;;;;;44.60;26.27;;;17.20;99.90;;;;;;5093549;28;20177;-65
2022/10/18 02:58:28;;;;;;;51.47;32.25;;;17.20;99.90;;;;;;5093352;28;20191;-65
2022/10/18 03:00:53;;;;;;;63.83;41.33;;;17.30;99.90;;;;;;5112150;28;20536;-65
2022/10/18 03:03:20;;;;;;;46.13;30.23;;;17.30;99.90;;;;;;5121347;27;20192;-65
2022/10/18 03:05:49;;;;;;;23.85;16.23;;;17.30;99.90;;;;;;5097599;28;20187;-66
2022/10/18 03:08:15;;;;;;;24.50;15.27;;;17.40;99.90;;;;;;5103811;28;20206;-65
2022/10/18 03:10:43;;;;;;;18.95;11.25;;;17.50;99.90;;;;;;5103721;28;20207;-65
2022/10/18 03:13:09;;;;;;;24.52;16.35;;;17.40;99.90;;;;;;5102027;28;20549;-65
2022/10/18 03:15:34;;;;;;;24.08;15.40;;;17.30;99.90;;;;;;5110510;28;20188;-65
2022/10/18 03:18:00;;;;;;;30.85;18.88;;;17.30;99.90;;;;;;5106333;28;20188;-65
2022/10/18 03:20:26;;;;;;;45.97;26.20;;;17.30;99.90;;;;;;5102881;28;20275;-65
2022/10/18 03:22:51;;;;;;;33.90;19.75;;;17.40;99.90;;;;;;5096719;28;20211;-65
2022/10/18 03:25:17;;;;;;;38.05;24.63;;;17.30;99.90;;;;;;5113540;28;20187;-65
2022/10/18 03:27:43;;;;;;;45.28;26.05;;;17.30;99.90;;;;;;5094037;28;20238;-65
2022/10/18 03:30:10;;;;;;;42.78;24.50;;;17.30;99.90;;;;;;5111422;27;20182;-65
2022/10/18 03:32:37;;;;;;;28.38;21.08;;;17.30;99.90;;;;;;5109874;28;20239;-65
2022/10/18 03:35:04;;;;;;;30.40;18.00;;;17.30;99.90;;;;;;5094201;28;20181;-65
2022/10/18 03:37:29;;;;;;;27.58;18.50;;;17.30;99.90;;;;;;5093769;28;20216;-65
2022/10/18 03:39:55;;;;;;;20.80;14.70;;;17.30;99.90;;;;;;5097700;28;20234;-65
2022/10/18 03:42:21;;;;;;;17.33;10.80;;;17.30;99.90;;;;;;5095309;28;20180;-65
2022/10/18 03:44:46;;;;;;;14.80;9.77;;;17.30;99.90;;;;;;5101832;28;20187;-65
2022/10/18 03:47:12;;;;;;;16.35;10.40;;;17.30;99.90;;;;;;5108360;28;20237;-65
2022/10/18 03:49:38;;;;;;;16.30;10.02;;;17.30;99.90;;;;;;5104455;28;20188;-65
2022/10/18 03:52:03;;;;;;;17.08;10.73;;;17.30;99.90;;;;;;5112969;28;20179;-65
2022/10/18 03:54:29;;;;;;;14.63;9.75;;;17.20;99.90;;;;;;5095610;28;20265;-65
2022/10/18 03:56:55;;;;;;;16.23;10.70;;;17.20;99.90;;;;;;5118334;27;20185;-65
2022/10/18 03:59:21;;;;;;;27.50;15.02;;;17.20;99.90;;;;;;5095537;28;20192;-65
2022/10/18 04:01:47;;;;;;;17.13;11.00;;;17.20;99.90;;;;;;5104076;28;20184;-65
2022/10/18 04:04:14;;;;;;;22.50;13.55;;;17.20;99.90;;;;;;5095116;28;20633;-65
2022/10/18 04:06:39;;;;;;;22.27;14.02;;;17.20;99.90;;;;;;5093170;28;20308;-64
2022/10/18 04:09:05;;;;;;;24.67;14.43;;;17.20;99.90;;;;;;5092876;28;20188;-65
2022/10/18 04:11:31;;;;;;;23.73;15.52;;;17.20;99.90;;;;;;5097272;28;20249;-65
2022/10/18 04:13:57;;;;;;;23.38;13.40;;;17.20;99.90;;;;;;5098291;28;20204;-65
2022/10/18 04:16:22;;;;;;;18.48;13.60;;;17.20;99.90;;;;;;5099636;28;20276;-65
2022/10/18 04:18:48;;;;;;;23.15;13.05;;;17.20;99.90;;;;;;5108690;27;20208;-65
2022/10/18 04:21:13;;;;;;;18.73;11.95;;;17.20;99.90;;;;;;5093184;28;20190;-65
2022/10/18 04:23:39;;;;;;;25.08;15.73;;;17.20;99.90;;;;;;5092904;28;20327;-65
2022/10/18 04:26:05;;;;;;;22.27;14.20;;;17.20;99.90;;;;;;5104536;28;20188;-65
2022/10/18 04:28:32;;;;;;;16.45;12.60;;;17.10;99.90;;;;;;5103837;28;20179;-65
2022/10/18 04:30:58;;;;;;;22.13;14.00;;;17.10;99.90;;;;;;5121114;27;20263;-65
2022/10/18 04:33:23;;;;;;;21.05;14.60;;;17.10;99.90;;;;;;5109316;28;20304;-65
2022/10/18 04:35:51;;;;;;;21.45;13.80;;;17.10;99.90;;;;;;5099051;28;20530;-65
2022/10/18 04:38:17;;;;;;;21.23;12.13;;;17.10;99.90;;;;;;5108334;28;20236;-65
2022/10/18 04:40:43;;;;;;;23.27;13.63;;;17.10;99.90;;;;;;5109611;28;20188;-65
2022/10/18 04:43:09;;;;;;;18.58;12.30;;;17.10;99.90;;;;;;5103253;28;20199;-65
2022/10/18 04:45:34;;;;;;;17.73;11.43;;;17.10;99.90;;;;;;5092111;28;20233;-65
2022/10/18 04:48:00;;;;;;;20.15;13.10;;;17.10;99.90;;;;;;5097054;28;20188;-65
2022/10/18 04:50:26;;;;;;;15.98;11.07;;;17.10;99.90;;;;;;5093413;28;20238;-65
2022/10/18 04:52:52;;;;;;;16.58;11.13;;;17.10;99.90;;;;;;5096766;28;20216;-65
2022/10/18 04:55:18;;;;;;;17.35;10.02;;;17.10;99.90;;;;;;5093097;28;20677;-65
2022/10/18 04:57:44;;;;;;;16.13;11.57;;;17.10;99.90;;;;;;5091720;28;20641;-65
2022/10/18 05:00:10;;;;;;;19.80;12.85;;;17.10;99.90;;;;;;5107999;27;20195;-65
2022/10/18 05:02:35;;;;;;;21.35;11.38;;;17.10;99.90;;;;;;5091594;28;20390;-65
2022/10/18 05:05:01;;;;;;;18.30;12.23;;;17.10;99.90;;;;;;5091515;28;20708;-65
2022/10/18 05:07:27;;;;;;;21.45;11.85;;;17.00;99.90;;;;;;5105956;28;20653;-66
2022/10/18 05:09:52;;;;;;;15.65;10.77;;;17.00;99.90;;;;;;5091335;28;20184;-65
2022/10/18 05:12:18;;;;;;;17.80;11.30;;;17.00;99.90;;;;;;5092610;28;20177;-66
2022/10/18 05:14:43;;;;;;;16.63;11.60;;;17.10;99.90;;;;;;5103760;28;20187;-65
2022/10/18 05:17:09;;;;;;;14.68;10.63;;;17.10;99.90;;;;;;5101652;28;20180;-65
2022/10/18 05:19:35;;;;;;;16.20;9.93;;;17.10;99.90;;;;;;5092240;28;20185;-66
2022/10/18 05:22:00;;;;;;;20.20;10.82;;;17.10;99.90;;;;;;5091582;28;20191;-65
2022/10/18 05:24:26;;;;;;;18.98;11.73;;;17.10;99.90;;;;;;5096043;28;20195;-66
2022/10/18 05:26:52;;;;;;;21.50;12.38;;;17.10;99.90;;;;;;5102617;28;20212;-66
2022/10/18 05:29:17;;;;;;;14.13;10.60;;;17.10;99.90;;;;;;5095014;28;20189;-66
2022/10/18 05:31:43;;;;;;;17.05;12.13;;;17.20;99.90;;;;;;5105751;28;20227;-66
2022/10/18 05:34:09;;;;;;;15.48;11.27;;;17.10;99.90;;;;;;5102927;28;20278;-66
2022/10/18 05:36:34;;;;;;;20.38;11.48;;;17.00;99.90;;;;;;5091948;28;20523;-66
2022/10/18 05:39:03;;;;;;;16.17;11.25;;;17.00;99.90;;;;;;5102466;28;20177;-66
2022/10/18 05:41:29;;;;;;;19.58;11.35;;;16.80;99.90;;;;;;5104185;28;20549;-66
2022/10/18 05:43:55;;;;;;;14.63;11.13;;;16.80;99.90;;;;;;5091146;28;20184;-65
2022/10/18 05:46:20;;;;;;;16.00;10.45;;;16.80;99.90;;;;;;5091671;28;20189;-65
2022/10/18 05:48:50;;;;;;;15.43;10.57;;;16.70;99.90;;;;;;5095532;28;20189;-65
2022/10/18 05:51:17;;;;;;;18.73;11.70;;;16.70;99.90;;;;;;5096012;28;20649;-62
2022/10/18 05:53:42;;;;;;;15.60;9.93;;;16.70;99.90;;;;;;5097358;27;20204;-63
2022/10/18 05:56:10;;;;;;;14.57;10.70;;;16.70;99.90;;;;;;5121064;27;20595;-64
2022/10/18 05:58:36;;;;;;;16.85;9.90;;;16.70;99.90;;;;;;5096477;28;20646;-64
2022/10/18 06:01:04;;;;;;;14.85;9.35;;;16.60;99.90;;;;;;5102159;28;20636;-65
2022/10/18 06:03:30;;;;;;;15.65;10.80;;;16.60;99.90;;;;;;5109747;28;20179;-65
2022/10/18 06:06:01;;;;;;;14.93;9.55;;;16.60;99.90;;;;;;5102997;28;20284;-66
2022/10/18 06:08:27;;;;;;;14.73;9.57;;;16.50;99.90;;;;;;5095550;28;20180;-66
2022/10/18 06:10:52;;;;;;;12.60;8.23;;;16.60;99.90;;;;;;5093699;28;20681;-64
2022/10/18 06:13:18;;;;;;;14.48;10.55;;;16.50;99.90;;;;;;5096552;28;20564;-66
2022/10/18 06:15:44;;;;;;;14.57;10.18;;;16.50;99.90;;;;;;5095478;28;20208;-65
2022/10/18 06:18:09;;;;;;;18.55;11.65;;;16.50;99.90;;;;;;5099424;28;20672;-66
2022/10/18 06:20:35;;;;;;;15.02;10.25;;;16.50;99.90;;;;;;5097466;28;20187;-67
2022/10/18 06:23:00;;;;;;;14.50;11.18;;;16.50;99.90;;;;;;5098560;28;20196;-66
2022/10/18 06:25:26;;;;;;;18.80;10.35;;;16.50;99.90;;;;;;5098111;28;20658;-65
2022/10/18 06:27:52;;;;;;;18.77;11.43;;;16.50;99.90;;;;;;5093636;28;20184;-65
2022/10/18 06:30:17;;;;;;;17.20;10.18;;;16.50;99.90;;;;;;5099552;27;20224;-64
2022/10/18 06:32:43;;;;;;;19.42;11.40;;;16.40;99.90;;;;;;5104688;28;20229;-65
2022/10/18 06:35:09;;;;;;;16.00;11.95;;;16.40;99.90;;;;;;5099349;28;20229;-64
2022/10/18 06:37:35;;;;;;;22.10;12.05;;;16.40;99.90;;;;;;5110985;27;20195;-65
2022/10/18 06:40:01;;;;;;;19.95;12.65;;;16.50;99.90;;;;;;5094840;28;20181;-65
2022/10/18 06:42:27;;;;;;;18.52;11.80;;;16.50;99.90;;;;;;5094588;28;20188;-64
2022/10/18 06:44:53;;;;;;;20.52;12.32;;;16.50;99.90;;;;;;5094791;28;20184;-64
2022/10/18 06:47:18;;;;;;;16.42;11.05;;;16.50;99.90;;;;;;5094978;28;20211;-64
2022/10/18 06:49:44;;;;;;;19.50;13.20;;;16.40;99.90;;;;;;5096252;28;20664;-65
2022/10/18 06:52:10;;;;;;;16.77;11.07;;;16.50;99.90;;;;;;5094032;28;20196;-65
2022/10/18 06:54:35;;;;;;;19.17;11.65;;;16.50;99.90;;;;;;5122200;27;20212;-65
2022/10/18 06:57:02;;;;;;;26.75;12.88;;;16.50;99.90;;;;;;5097895;28;20589;-66
2022/10/18 06:59:27;;;;;;;15.18;11.32;;;16.50;99.90;;;;;;5100455;28;20215;-65
2022/10/18 07:01:53;;;;;;;16.65;11.30;;;16.50;99.90;;;;;;5109574;27;20212;-65
2022/10/18 07:04:18;;;;;;;16.48;11.90;;;16.50;99.90;;;;;;5093808;28;20200;-65
2022/10/18 07:06:44;;;;;;;16.15;10.63;;;16.50;99.90;;;;;;5109269;27;20241;-65
2022/10/18 07:09:10;;;;;;;18.58;11.65;;;16.50;99.90;;;;;;5094000;28;20191;-65
2022/10/18 07:11:36;;;;;;;17.80;11.65;;;16.50;99.90;;;;;;5098338;28;20615;-65
2022/10/18 07:14:03;;;;;;;22.27;12.90;;;16.60;99.90;;;;;;5093609;28;20710;-65
2022/10/18 07:16:30;;;;;;;20.83;11.77;;;16.60;99.90;;;;;;5098015;28;20181;-65
2022/10/18 07:18:56;;;;;;;19.48;10.85;;;16.70;99.90;;;;;;5093693;28;20645;-65
2022/10/18 07:21:24;;;;;;;18.42;10.75;;;16.80;99.90;;;;;;5095683;28;20241;-65
2022/10/18 07:23:50;;;;;;;19.33;11.63;;;16.80;99.90;;;;;;5103198;28;20274;-65
2022/10/18 07:26:17;;;;;;;14.63;11.02;;;16.90;99.90;;;;;;5094166;28;20203;-66
2022/10/18 07:28:45;;;;;;;17.05;11.73;;;17.00;99.90;;;;;;5093646;28;20653;-65
2022/10/18 07:31:11;;;;;;;19.38;11.70;;;17.10;99.90;;;;;;5099381;28;20655;-65
2022/10/18 07:33:37;;;;;;;24.42;11.68;;;17.30;99.90;;;;;;5098971;28;20215;-66
2022/10/18 07:36:05;;;;;;;16.55;11.88;;;18.00;99.90;;;;;;5093241;28;20216;-64
2022/10/18 07:38:31;;;;;;;18.00;12.38;;;19.30;99.90;;;;;;5093834;28;20184;-67
2022/10/18 07:41:02;;;;;;;22.83;14.48;;;20.60;99.90;;;;;;5096592;28;20648;-67
2022/10/18 07:43:29;;;;;;;19.80;12.35;;;21.80;99.90;;;;;;5096590;28;20706;-65
2022/10/18 07:45:57;;;;;;;18.88;11.88;;;22.70;99.90;;;;;;5093779;28;20184;-67
2022/10/18 07:48:23;;;;;;;20.20;10.02;;;23.60;99.90;;;;;;5101465;28;20254;-67
2022/10/18 07:50:49;;;;;;;11.02;8.15;;;24.40;99.90;;;;;;5093221;28;20206;-68
2022/10/18 07:53:14;;;;;;;8.27;6.78;;;24.90;99.90;;;;;;5091947;28;20669;-68
2022/10/18 07:55:40;;;;;;;10.60;6.30;;;25.00;99.90;;;;;;5116329;27;20180;-68
2022/10/18 07:58:06;;;;;;;10.00;5.78;;;24.80;99.90;;;;;;5100238;28;20211;-67
2022/10/18 08:00:32;;;;;;;6.82;4.32;;;23.60;99.90;;;;;;5097448;28;20199;-67
2022/10/18 08:02:58;;;;;;;7.32;4.90;;;22.60;99.90;;;;;;5094104;28;20196;-65
2022/10/18 08:05:27;;;;;;;7.20;5.03;;;21.70;99.90;;;;;;5102370;28;20192;-66
2022/10/18 08:07:54;;;;;;;8.18;5.78;;;21.60;99.90;;;;;;5083052;28;20176;-66
2022/10/18 08:10:20;;;;;;;7.13;3.90;;;21.20;99.90;;;;;;5098868;28;20266;-66
2022/10/18 08:12:46;;;;;;;7.88;3.90;;;20.40;99.90;;;;;;5092647;28;20216;-66
2022/10/18 08:15:12;;;;;;;7.80;4.72;;;20.00;99.90;;;;;;5092205;28;20598;-66
2022/10/18 08:17:38;;;;;;;7.50;3.67;;;19.50;99.90;;;;;;5092691;28;20527;-66
2022/10/18 08:20:04;;;;;;;13.23;4.53;;;18.90;99.90;;;;;;5092930;28;20189;-65
2022/10/18 08:22:30;;;;;;;9.98;5.97;;;18.90;99.90;;;;;;5094659;28;20184;-66
2022/10/18 08:24:56;;;;;;;11.55;6.03;;;18.70;99.90;;;;;;5092653;28;20188;-66
2022/10/18 08:27:23;;;;;;;8.30;5.68;;;18.60;99.90;;;;;;5092801;28;20196;-66
2022/10/18 08:29:49;;;;;;;11.15;5.07;;;18.60;99.90;;;;;;5108140;28;20203;-66
2022/10/18 08:32:14;;;;;;;9.85;5.70;;;18.60;99.90;;;;;;5111554;28;20590;-65
2022/10/18 08:34:40;;;;;;;7.63;4.47;;;18.20;99.90;;;;;;5106144;28;20319;-66
2022/10/18 08:37:06;;;;;;;15.32;5.60;;;18.10;99.90;;;;;;5099758;28;20180;-65
2022/10/18 08:39:31;;;;;;;10.00;4.95;;;18.20;99.90;;;;;;5075193;28;20330;-66
2022/10/18 08:42:16;;;;;;;15.25;6.13;;;18.20;99.90;;;;;;5099358;28;20241;-66
2022/10/18 08:44:47;;;;;;;15.35;7.35;;;18.30;99.90;;;;;;5106373;28;20642;-66
2022/10/18 08:47:17;;;;;;;12.85;7.78;;;18.00;99.90;;;;;;5091596;28;20196;-65
2022/10/18 08:49:48;;;;;;;12.63;7.25;;;17.80;99.90;;;;;;5093173;28;20184;-66
2022/10/18 08:52:44;;;;;;;14.65;7.50;;;17.80;99.90;;;;;;5093203;28;20172;-65
2022/10/18 08:55:27;;;;;;;14.48;8.27;;;17.90;99.90;;;;;;5092511;28;20192;-65
2022/10/18 08:57:56;;;;;;;18.55;8.65;;;18.10;99.90;;;;;;5093196;28;20648;-66
2022/10/18 09:00:26;;;;;;;18.60;9.48;;;17.90;99.90;;;;;;5092557;28;20231;-65
2022/10/18 09:03:02;;;;;;;17.63;9.35;;;17.90;99.90;;;;;;5091292;28;20184;-65
2022/10/18 09:06:01;;;;;;;13.90;9.25;;;17.80;99.90;;;;;;5105579;28;20704;-65
2022/10/18 09:08:44;;;;;;;17.15;8.65;;;17.50;99.90;;;;;;5098039;28;20724;-64
2022/10/18 09:11:22;;;;;;;20.73;9.15;;;17.40;99.90;;;;;;5103894;28;20203;-64
2022/10/18 09:14:18;;;;;;;21.23;8.55;;;17.40;99.90;;;;;;5096227;28;20307;-65
2022/10/18 09:17:06;;;;;;;14.85;9.15;;;17.40;99.90;;;;;;5093043;28;20188;-66
2022/10/18 09:19:44;;;;;;;15.77;11.00;;;17.30;99.90;;;;;;5092584;28;20228;-66
2022/10/18 09:22:18;;;;;;;14.98;9.23;;;17.40;99.90;;;;;;5093244;28;20206;-65
2022/10/18 09:25:01;;;;;;;18.85;9.73;;;17.80;99.90;;;;;;5104937;28;20185;-64
2022/10/18 09:27:47;;;;;;;19.48;9.82;;;17.80;99.90;;;;;;5110089;28;20180;-64
2022/10/18 09:30:43;;;;;;;18.73;7.75;;;17.80;99.90;;;;;;5096801;28;20528;-64
2022/10/18 09:33:28;;;;;;;16.27;8.88;;;17.80;99.90;;;;;;5096527;28;20235;-64
2022/10/18 09:36:04;;;;;;;17.35;6.90;;;17.50;99.90;;;;;;5108404;28;20550;-64
2022/10/18 09:38:40;;;;;;;10.90;5.65;;;17.50;99.90;;;;;;5108022;28;20270;-64
2022/10/18 09:41:19;;;;;;;14.32;5.45;;;17.40;99.90;;;;;;5111792;27;20184;-65
2022/10/18 09:44:12;;;;;;;7.43;4.80;;;17.50;99.90;;;;;;5106797;28;20177;-65
2022/10/18 09:46:45;;;;;;;7.82;4.70;;;17.60;99.90;;;;;;5099326;28;20177;-65
2022/10/18 09:49:35;;;;;;;9.30;3.78;;;17.80;99.90;;;;;;5104374;28;20177;-65
2022/10/18 09:52:06;;;;;;;9.98;3.80;;;18.00;99.90;;;;;;5098576;28;20195;-65
2022/10/18 09:54:42;;;;;;;9.35;3.88;;;18.00;99.90;;;;;;5096314;28;20200;-65
2022/10/18 09:57:40;;;;;;;6.82;3.35;;;18.20;99.90;;;;;;5111432;27;20233;-65
2022/10/18 10:00:15;;;;;;;8.75;2.95;;;19.00;99.90;;;;;;5086274;28;20197;-65
2022/10/18 10:02:41;;;;;;;8.63;2.60;;;18.90;99.90;;;;;;5099213;28;20207;-65
2022/10/18 10:05:14;;;;;;;6.90;3.70;;;18.90;99.90;;;;;;5095813;28;20212;-65
2022/10/18 10:07:46;;;;;;;7.97;3.88;;;18.70;99.90;;;;;;5095793;28;20259;-65
2022/10/18 10:10:14;;;;;;;4.15;3.25;;;18.50;99.90;;;;;;5096465;28;20309;-65
2022/10/18 10:12:40;;;;;;;9.93;3.95;;;18.50;99.90;;;;;;5108846;28;20299;-64
2022/10/18 10:15:22;;;;;;;9.20;3.85;;;18.60;99.90;;;;;;5094236;28;20646;-64
2022/10/18 10:18:04;;;;;;;9.48;3.40;;;18.40;99.90;;;;;;5094044;28;20177;-65
2022/10/18 10:20:35;;;;;;;7.53;3.47;;;18.30;99.90;;;;;;5095129;28;20222;-65
2022/10/18 10:23:08;;;;;;;8.40;2.20;;;18.20;99.90;;;;;;5094099;28;20506;-65
2022/10/18 10:25:36;;;;;;;6.85;2.95;;;18.30;99.90;;;;;;5094757;28;20195;-65
2022/10/18 10:28:06;;;;;;;6.30;3.40;;;18.10;99.90;;;;;;5095443;28;20180;-66
2022/10/18 10:30:36;;;;;;;5.70;2.40;;;18.10;99.90;;;;;;5097804;28;20168;-66
2022/10/18 10:33:03;;;;;;;7.50;2.40;;;18.20;99.90;;;;;;5095138;28;20215;-65
2022/10/18 10:35:29;;;;;;;8.38;2.63;;;18.20;99.90;;;;;;5099065;28;20180;-67
2022/10/18 10:37:55;;;;;;;5.05;3.10;;;18.30;99.90;;;;;;5108303;28;20175;-64
2022/10/18 10:40:25;;;;;;;4.53;2.70;;;18.40;99.90;;;;;;5102297;28;20189;-66
2022/10/18 10:43:17;;;;;;;7.35;3.38;;;18.60;99.90;;;;;;5094816;28;20793;-66
2022/10/18 10:45:57;;;;;;;5.38;2.60;;;18.40;99.90;;;;;;5104274;28;20219;-66
2022/10/18 10:48:25;;;;;;;7.10;2.45;;;18.60;99.90;;;;;;5094785;28;20169;-66
2022/10/18 10:51:06;;;;;;;5.25;2.78;;;18.60;99.90;;;;;;5093022;28;20185;-66
2022/10/18 10:53:41;;;;;;;6.78;1.95;;;18.60;99.90;;;;;;5098457;28;20204;-66
2022/10/18 10:56:25;;;;;;;3.60;2.38;;;18.50;99.90;;;;;;5095997;28;20225;-66
2022/10/18 10:58:52;;;;;;;8.85;2.70;;;18.60;99.90;;;;;;5094741;28;20178;-65
2022/10/18 11:01:17;;;;;;;7.63;2.05;;;18.70;99.90;;;;;;5117198;27;20237;-67
2022/10/18 11:03:48;;;;;;;4.28;2.78;;;18.60;99.90;;;;;;5098895;28;20180;-66
2022/10/18 11:06:39;;;;;;;4.45;2.70;;;18.80;99.90;;;;;;5103067;28;20185;-66
2022/10/18 11:09:23;;;;;;;3.35;1.88;;;18.90;99.90;;;;;;5094138;28;20173;-67
2022/10/18 11:12:04;;;;;;;5.78;2.80;;;18.90;99.90;;;;;;5099083;28;20565;-66
2022/10/18 11:14:37;;;;;;;7.57;2.38;;;19.00;99.90;;;;;;5104583;28;20679;-67
2022/10/18 11:17:26;;;;;;;6.40;2.28;;;19.10;99.90;;;;;;5105757;28;20267;-66
2022/10/18 11:20:10;;;;;;;5.97;1.73;;;18.90;99.90;;;;;;5094130;28;20212;-66
2022/10/18 11:22:52;;;;;;;5.82;1.98;;;19.00;99.90;;;;;;5100026;28;20621;-66
2022/10/18 11:25:21;;;;;;;3.63;1.50;;;19.00;99.90;;;;;;5094061;28;20187;-66
2022/10/18 11:28:11;;;;;;;9.75;2.25;;;19.10;99.90;;;;;;5097636;28;20222;-65
2022/10/18 11:30:39;;;;;;;2.90;1.48;;;19.30;99.90;;;;;;5100591;28;20191;-66
2022/10/18 11:33:25;;;;;;;1.38;0.93;;;19.20;99.90;;;;;;5097117;28;20568;-66
2022/10/18 11:35:55;;;;;;;4.72;1.35;;;19.10;99.90;;;;;;5107911;28;20188;-66
2022/10/18 11:38:50;;;;;;;2.22;1.70;;;19.10;99.90;;;;;;5105537;28;20183;-66
2022/10/18 11:41:36;;;;;;;1.40;1.30;;;19.20;99.90;;;;;;5108818;28;20200;-66
2022/10/18 11:44:42;;;;;;;3.40;1.63;;;19.30;99.90;;;;;;5100232;28;20180;-66
2022/10/18 11:47:35;;;;;;;4.72;1.45;;;19.50;99.90;;;;;;5090981;28;20645;-66
2022/10/18 11:50:12;;;;;;;3.13;1.95;;;19.50;99.90;;;;;;5093539;28;20617;-65
2022/10/18 11:52:37;;;;;;;4.95;1.08;;;19.60;99.90;;;;;;5093787;28;20184;-66
2022/10/18 11:55:35;;;;;;;2.13;1.48;;;19.60;99.90;;;;;;5096908;28;20237;-66
2022/10/18 11:58:17;;;;;;;3.33;1.50;;;19.60;99.90;;;;;;5099624;28;20210;-66
2022/10/18 12:00:51;;;;;;;5.68;1.60;;;19.90;99.90;;;;;;5099400;28;20225;-66
2022/10/18 12:03:22;;;;;;;1.60;1.05;;;19.70;99.90;;;;;;5094005;28;20181;-66
2022/10/18 12:05:51;;;;;;;5.18;1.30;;;19.90;99.90;;;;;;5099149;28;20247;-66
2022/10/18 12:08:28;;;;;;;2.75;1.25;;;19.70;99.90;;;;;;5094229;28;20180;-66
2022/10/18 12:10:56;;;;;;;4.95;1.50;;;19.70;99.90;;;;;;5093231;28;20200;-66
2022/10/18 12:13:45;;;;;;;5.03;1.02;;;19.80;99.90;;;;;;5092070;28;20627;-66
2022/10/18 12:16:11;;;;;;;1.35;1.13;;;19.80;99.90;;;;;;5093527;28;20187;-66
2022/10/18 12:18:55;;;;;;;4.10;1.45;;;20.00;99.90;;;;;;5108753;27;20280;-66
2022/10/18 12:21:23;;;;;;;4.43;1.20;;;20.10;99.90;;;;;;5100641;28;20641;-66
2022/10/18 12:23:54;;;;;;;5.43;1.42;;;19.90;99.90;;;;;;5110178;28;20244;-66
2022/10/18 12:26:21;;;;;;;5.78;1.27;;;19.80;99.90;;;;;;5094409;28;20233;-66
2022/10/18 12:28:57;;;;;;;9.70;2.30;;;19.90;99.90;;;;;;5109340;28;20187;-66
2022/10/18 12:31:38;;;;;;;5.90;1.63;;;19.90;99.90;;;;;;5100509;28;20632;-66
2022/10/18 12:34:10;;;;;;;7.13;2.90;;;19.80;99.90;;;;;;5103673;28;20225;-66
2022/10/18 12:36:50;;;;;;;5.32;1.30;;;19.80;99.90;;;;;;5108007;28;20176;-66
2022/10/18 12:39:34;;;;;;;7.28;1.75;;;19.80;99.90;;;;;;5097265;28;20594;-66
2022/10/18 12:42:00;;;;;;;1.08;0.80;;;19.70;99.90;;;;;;5099920;28;20270;-66
2022/10/18 12:44:30;;;;;;;4.60;1.30;;;19.50;99.90;;;;;;5107703;28;20619;-66
2022/10/18 12:47:02;;;;;;;3.05;1.13;;;19.40;99.90;;;;;;5096517;28;20263;-66
2022/10/18 12:49:38;;;;;;;4.70;1.35;;;19.40;99.90;;;;;;5093453;28;20185;-66
2022/10/18 12:52:22;;;;;;;5.72;1.23;;;19.40;99.90;;;;;;5094873;28;20282;-66
2022/10/18 12:55:02;;;;;;;6.30;1.55;;;19.50;99.90;;;;;;5105142;28;20200;-65
2022/10/18 12:57:50;;;;;;;3.63;1.23;;;19.40;99.90;;;;;;5094161;28;20263;-66